CPA530 RCTP-RJGG
Flight info
| Callsign | CPA530 |
|---|---|
| Flight time | 2h 10m |
| Altitude | 39000 |
| Route | MOLKA M750 IMPAL Y755 CARDS |
| Aircraft | B77W/H-SDE1E2E3FGHIJ2J3J4J5M1RWXY/LB1D1 |
Departure
| Time | 2026-05-06 09:54 |
|---|---|
| Airport | Taiwan Taoyuan International Airport (RCTP) |
Arrival
| Time | 2026-05-06 12:04 |
|---|---|
| Airport | Chubu Centrair International Airport (RJGG) |
| Time | Latitude | Longitude | Altitude | Speed | Heading |
|---|---|---|---|---|---|
| 2026-05-06 09:21 | 25.07821 | 121.23728 | 88 ft | 0 kts | 319° |
| 2026-05-06 09:43 | 25.07819 | 121.23730 | 88 ft | 2 kts | 319° |
| 2026-05-06 09:43 | 25.07807 | 121.23742 | 91 ft | 2 kts | 319° |
| 2026-05-06 09:44 | 25.07794 | 121.23753 | 91 ft | 2 kts | 319° |
| 2026-05-06 09:44 | 25.07782 | 121.23766 | 91 ft | 2 kts | 319° |
| 2026-05-06 09:44 | 25.07770 | 121.23777 | 91 ft | 2 kts | 318° |
| 2026-05-06 09:44 | 25.07757 | 121.23789 | 92 ft | 2 kts | 300° |
| 2026-05-06 09:45 | 25.07751 | 121.23806 | 91 ft | 2 kts | 273° |
| 2026-05-06 09:45 | 25.07753 | 121.23824 | 90 ft | 2 kts | 245° |
| 2026-05-06 09:45 | 25.07755 | 121.23830 | 91 ft | 0 kts | 230° |
| 2026-05-06 09:47 | 25.07752 | 121.23826 | 91 ft | 3 kts | 230° |
| 2026-05-06 09:47 | 25.07726 | 121.23793 | 90 ft | 8 kts | 229° |
| 2026-05-06 09:47 | 25.07683 | 121.23738 | 91 ft | 10 kts | 229° |
| 2026-05-06 09:48 | 25.07644 | 121.23695 | 93 ft | 7 kts | 209° |
| 2026-05-06 09:48 | 25.07599 | 121.23697 | 92 ft | 7 kts | 154° |
| 2026-05-06 09:48 | 25.07560 | 121.23730 | 92 ft | 7 kts | 140° |
| 2026-05-06 09:48 | 25.07519 | 121.23768 | 93 ft | 8 kts | 139° |
| 2026-05-06 09:49 | 25.07471 | 121.23785 | 93 ft | 8 kts | 197° |
| 2026-05-06 09:49 | 25.07431 | 121.23742 | 91 ft | 9 kts | 229° |
| 2026-05-06 09:49 | 25.07382 | 121.23681 | 94 ft | 13 kts | 229° |
| 2026-05-06 09:49 | 25.07318 | 121.23597 | 92 ft | 16 kts | 230° |
| 2026-05-06 09:50 | 25.07235 | 121.23491 | 94 ft | 20 kts | 228° |
| 2026-05-06 09:50 | 25.07134 | 121.23365 | 95 ft | 24 kts | 229° |
| 2026-05-06 09:50 | 25.07019 | 121.23218 | 96 ft | 27 kts | 229° |
| 2026-05-06 09:50 | 25.06897 | 121.23061 | 96 ft | 27 kts | 229° |
| 2026-05-06 09:51 | 25.06773 | 121.22905 | 96 ft | 27 kts | 229° |
| 2026-05-06 09:51 | 25.06650 | 121.22748 | 98 ft | 27 kts | 229° |
| 2026-05-06 09:51 | 25.06526 | 121.22592 | 98 ft | 27 kts | 228° |
| 2026-05-06 09:51 | 25.06428 | 121.22467 | 98 ft | 18 kts | 229° |
| 2026-05-06 09:52 | 25.06378 | 121.22423 | 99 ft | 9 kts | 198° |
| 2026-05-06 09:52 | 25.06322 | 121.22442 | 100 ft | 9 kts | 144° |
| 2026-05-06 09:52 | 25.06274 | 121.22485 | 98 ft | 9 kts | 138° |
| 2026-05-06 09:52 | 25.06234 | 121.22530 | 101 ft | 6 kts | 118° |
| 2026-05-06 09:53 | 25.06248 | 121.22566 | 97 ft | 0 kts | 47° |
| 2026-05-06 09:53 | 25.06250 | 121.22568 | 99 ft | 5 kts | 47° |
| 2026-05-06 09:53 | 25.06446 | 121.22813 | 96 ft | 85 kts | 49° |
| 2026-05-06 09:53 | 25.06997 | 121.23506 | 96 ft | 154 kts | 48° |
| 2026-05-06 09:54 | 25.07777 | 121.24505 | 494 ft | 177 kts | 48° |
| 2026-05-06 09:54 | 25.08590 | 121.25551 | 1360 ft | 179 kts | 51° |
| 2026-05-06 09:54 | 25.09435 | 121.26658 | 1847 ft | 203 kts | 53° |
| 2026-05-06 09:54 | 25.10405 | 121.27946 | 2046 ft | 237 kts | 52° |
| 2026-05-06 09:55 | 25.11515 | 121.29412 | 2554 ft | 255 kts | 50° |
| 2026-05-06 09:55 | 25.12744 | 121.30868 | 3398 ft | 264 kts | 46° |
| 2026-05-06 09:55 | 25.14049 | 121.32351 | 4119 ft | 278 kts | 45° |
| 2026-05-06 09:55 | 25.15422 | 121.33906 | 5013 ft | 282 kts | 44° |
| 2026-05-06 09:56 | 25.16790 | 121.35463 | 6058 ft | 283 kts | 44° |
| 2026-05-06 09:56 | 25.18186 | 121.37060 | 6803 ft | 294 kts | 44° |
| 2026-05-06 09:56 | 25.19600 | 121.38678 | 7605 ft | 298 kts | 45° |
| 2026-05-06 09:56 | 25.21052 | 121.40344 | 8468 ft | 303 kts | 44° |
| 2026-05-06 09:57 | 25.22523 | 121.42037 | 9293 ft | 308 kts | 45° |
| 2026-05-06 09:57 | 25.24027 | 121.43771 | 10071 ft | 314 kts | 45° |
| 2026-05-06 09:57 | 25.25569 | 121.45548 | 10654 ft | 329 kts | 45° |
| 2026-05-06 09:57 | 25.27227 | 121.47458 | 10870 ft | 358 kts | 44° |
| 2026-05-06 09:58 | 25.28913 | 121.49593 | 11022 ft | 381 kts | 56° |
| 2026-05-06 09:58 | 25.29659 | 121.51386 | 11223 ft | 396 kts | 75° |
| 2026-05-06 09:58 | 25.29703 | 121.55479 | 12219 ft | 401 kts | 101° |
| 2026-05-06 09:58 | 25.29367 | 121.58481 | 12833 ft | 405 kts | 88° |
| 2026-05-06 09:59 | 25.29793 | 121.61588 | 13585 ft | 412 kts | 76° |
| 2026-05-06 09:59 | 25.30544 | 121.64664 | 14447 ft | 414 kts | 72° |
| 2026-05-06 09:59 | 25.31080 | 121.66696 | 15017 ft | 416 kts | 72° |
| 2026-05-06 09:59 | 25.31871 | 121.69806 | 15802 ft | 422 kts | 73° |
| 2026-05-06 10:00 | 25.32839 | 121.73999 | 16840 ft | 427 kts | 75° |
| 2026-05-06 10:00 | 25.33300 | 121.76172 | 17389 ft | 430 kts | 76° |
| 2026-05-06 10:00 | 25.34168 | 121.80478 | 18396 ft | 436 kts | 76° |
| 2026-05-06 10:00 | 25.34601 | 121.82695 | 18818 ft | 439 kts | 76° |
| 2026-05-06 10:01 | 25.35234 | 121.85974 | 19432 ft | 444 kts | 76° |
| 2026-05-06 10:01 | 25.35878 | 121.89329 | 20062 ft | 448 kts | 76° |
| 2026-05-06 10:01 | 25.36531 | 121.92727 | 20699 ft | 453 kts | 76° |
| 2026-05-06 10:01 | 25.37188 | 121.96147 | 21324 ft | 457 kts | 76° |
| 2026-05-06 10:02 | 25.37855 | 121.99607 | 21943 ft | 462 kts | 76° |
| 2026-05-06 10:02 | 25.38526 | 122.03092 | 22552 ft | 466 kts | 76° |
| 2026-05-06 10:02 | 25.39205 | 122.06625 | 23163 ft | 471 kts | 76° |
| 2026-05-06 10:02 | 25.39888 | 122.10184 | 23773 ft | 474 kts | 75° |
| 2026-05-06 10:03 | 25.40578 | 122.13761 | 24317 ft | 476 kts | 75° |
| 2026-05-06 10:03 | 25.41278 | 122.17366 | 24802 ft | 481 kts | 75° |
| 2026-05-06 10:03 | 25.41978 | 122.20959 | 25258 ft | 485 kts | 73° |
| 2026-05-06 10:03 | 25.42917 | 122.24552 | 25708 ft | 487 kts | 68° |
| 2026-05-06 10:04 | 25.44095 | 122.28077 | 26164 ft | 490 kts | 65° |
| 2026-05-06 10:04 | 25.45376 | 122.31604 | 26624 ft | 493 kts | 64° |
| 2026-05-06 10:04 | 25.46654 | 122.35101 | 27084 ft | 497 kts | 64° |
| 2026-05-06 10:04 | 25.47928 | 122.38672 | 27595 ft | 500 kts | 65° |
| 2026-05-06 10:05 | 25.49180 | 122.42283 | 28048 ft | 503 kts | 65° |
| 2026-05-06 10:05 | 25.50416 | 122.45930 | 28448 ft | 508 kts | 66° |
| 2026-05-06 10:05 | 25.51646 | 122.49610 | 28826 ft | 512 kts | 66° |
| 2026-05-06 10:05 | 25.52880 | 122.53322 | 29203 ft | 515 kts | 66° |
| 2026-05-06 10:06 | 25.54121 | 122.57059 | 29594 ft | 518 kts | 66° |
| 2026-05-06 10:06 | 25.55359 | 122.60787 | 29950 ft | 521 kts | 66° |
| 2026-05-06 10:06 | 25.56612 | 122.64556 | 30339 ft | 521 kts | 65° |
| 2026-05-06 10:06 | 25.57866 | 122.68330 | 30807 ft | 519 kts | 65° |
| 2026-05-06 10:07 | 25.59111 | 122.72080 | 31270 ft | 518 kts | 65° |
| 2026-05-06 10:07 | 25.60361 | 122.75844 | 31706 ft | 518 kts | 65° |
| 2026-05-06 10:07 | 25.61591 | 122.79559 | 32117 ft | 518 kts | 65° |
| 2026-05-06 10:07 | 25.62833 | 122.83308 | 32542 ft | 517 kts | 65° |
| 2026-05-06 10:08 | 25.64076 | 122.87058 | 32963 ft | 516 kts | 65° |
| 2026-05-06 10:08 | 25.65326 | 122.90787 | 33409 ft | 515 kts | 64° |
| 2026-05-06 10:08 | 25.66573 | 122.94465 | 33871 ft | 513 kts | 64° |
| 2026-05-06 10:08 | 25.67836 | 122.98181 | 34244 ft | 513 kts | 64° |
| 2026-05-06 10:09 | 25.69090 | 123.01880 | 34599 ft | 512 kts | 64° |
| 2026-05-06 10:09 | 25.70344 | 123.05591 | 34953 ft | 511 kts | 64° |
| 2026-05-06 10:09 | 25.71591 | 123.09295 | 35293 ft | 511 kts | 64° |
| 2026-05-06 10:09 | 25.72815 | 123.12941 | 35595 ft | 512 kts | 64° |
| 2026-05-06 10:10 | 25.74056 | 123.16642 | 35924 ft | 511 kts | 64° |
| 2026-05-06 10:10 | 25.75296 | 123.20348 | 36228 ft | 511 kts | 64° |
| 2026-05-06 10:10 | 25.76540 | 123.24068 | 36539 ft | 511 kts | 64° |
| 2026-05-06 10:10 | 25.77778 | 123.27773 | 36832 ft | 511 kts | 64° |
| 2026-05-06 10:11 | 25.80255 | 123.35190 | 36969 ft | 517 kts | 64° |
| 2026-05-06 10:11 | 25.82731 | 123.42644 | 36964 ft | 512 kts | 64° |
| 2026-05-06 10:12 | 25.85187 | 123.50051 | 36979 ft | 506 kts | 63° |
| 2026-05-06 10:12 | 25.87968 | 123.57145 | 36972 ft | 489 kts | 47° |
| 2026-05-06 10:13 | 25.90225 | 123.59892 | 36980 ft | 476 kts | 33° |
| 2026-05-06 10:13 | 25.92916 | 123.61886 | 36983 ft | 466 kts | 18° |
| 2026-05-06 10:13 | 25.98877 | 123.64811 | 36990 ft | 472 kts | 18° |
| 2026-05-06 10:14 | 26.04886 | 123.67877 | 36997 ft | 475 kts | 19° |
| 2026-05-06 10:14 | 26.10818 | 123.70985 | 36972 ft | 466 kts | 18° |
| 2026-05-06 10:15 | 26.16630 | 123.74052 | 36995 ft | 464 kts | 19° |
| 2026-05-06 10:15 | 26.22477 | 123.77147 | 36983 ft | 465 kts | 19° |
| 2026-05-06 10:16 | 26.28312 | 123.80209 | 36990 ft | 466 kts | 19° |
| 2026-05-06 10:16 | 26.34183 | 123.83288 | 36989 ft | 466 kts | 19° |
| 2026-05-06 10:17 | 26.40072 | 123.86385 | 36992 ft | 467 kts | 19° |
| 2026-05-06 10:17 | 26.45917 | 123.89464 | 36991 ft | 467 kts | 19° |
| 2026-05-06 10:18 | 26.51802 | 123.92568 | 36999 ft | 467 kts | 19° |
| 2026-05-06 10:18 | 26.57684 | 123.95675 | 37001 ft | 467 kts | 19° |
| 2026-05-06 10:19 | 26.63522 | 123.98762 | 36991 ft | 466 kts | 20° |
| 2026-05-06 10:19 | 26.66315 | 124.00647 | 36977 ft | 476 kts | 33° |
| 2026-05-06 10:19 | 26.68643 | 124.03346 | 37008 ft | 484 kts | 44° |
| 2026-05-06 10:20 | 26.72867 | 124.09237 | 37000 ft | 486 kts | 45° |
| 2026-05-06 10:20 | 26.77155 | 124.15109 | 36998 ft | 487 kts | 44° |
| 2026-05-06 10:21 | 26.81501 | 124.20954 | 37001 ft | 488 kts | 44° |
| 2026-05-06 10:21 | 26.85843 | 124.26774 | 36996 ft | 489 kts | 44° |
| 2026-05-06 10:22 | 26.90206 | 124.32640 | 37010 ft | 490 kts | 44° |
| 2026-05-06 10:22 | 26.94548 | 124.38491 | 37000 ft | 489 kts | 44° |
| 2026-05-06 10:23 | 26.98901 | 124.44361 | 36999 ft | 488 kts | 44° |
| 2026-05-06 10:23 | 27.03238 | 124.50211 | 37009 ft | 487 kts | 44° |
| 2026-05-06 10:24 | 27.07544 | 124.56027 | 37016 ft | 486 kts | 44° |
| 2026-05-06 10:24 | 27.11882 | 124.61895 | 37003 ft | 485 kts | 44° |
| 2026-05-06 10:25 | 27.16190 | 124.67731 | 37005 ft | 485 kts | 44° |
| 2026-05-06 10:25 | 27.20476 | 124.73545 | 37012 ft | 484 kts | 44° |
| 2026-05-06 10:26 | 27.24783 | 124.79395 | 37020 ft | 485 kts | 44° |
| 2026-05-06 10:26 | 27.29062 | 124.85216 | 37004 ft | 485 kts | 44° |
| 2026-05-06 10:27 | 27.33362 | 124.91073 | 37013 ft | 485 kts | 44° |
| 2026-05-06 10:27 | 27.35516 | 124.94010 | 37118 ft | 487 kts | 44° |
| 2026-05-06 10:27 | 27.37673 | 124.96952 | 37430 ft | 487 kts | 44° |
| 2026-05-06 10:28 | 27.39835 | 124.99905 | 37787 ft | 485 kts | 44° |
| 2026-05-06 10:28 | 27.41959 | 125.02791 | 38195 ft | 482 kts | 44° |
| 2026-05-06 10:28 | 27.44110 | 125.05684 | 38587 ft | 480 kts | 44° |
| 2026-05-06 10:28 | 27.46258 | 125.08559 | 38794 ft | 480 kts | 44° |
| 2026-05-06 10:29 | 27.48420 | 125.11455 | 38914 ft | 483 kts | 44° |
| 2026-05-06 10:29 | 27.50589 | 125.14369 | 38954 ft | 486 kts | 44° |
| 2026-05-06 10:29 | 27.54910 | 125.20206 | 39001 ft | 486 kts | 44° |
| 2026-05-06 10:30 | 27.59212 | 125.26041 | 39010 ft | 481 kts | 45° |
| 2026-05-06 10:30 | 27.63461 | 125.31808 | 39013 ft | 479 kts | 45° |
| 2026-05-06 10:31 | 27.67720 | 125.37589 | 39006 ft | 478 kts | 45° |
| 2026-05-06 10:31 | 27.71973 | 125.43368 | 39007 ft | 478 kts | 45° |
| 2026-05-06 10:32 | 27.76198 | 125.49119 | 39007 ft | 478 kts | 45° |
| 2026-05-06 10:32 | 27.80468 | 125.54938 | 39013 ft | 479 kts | 45° |
| 2026-05-06 10:33 | 27.84731 | 125.60757 | 39008 ft | 480 kts | 45° |
| 2026-05-06 10:33 | 27.88974 | 125.66556 | 39009 ft | 481 kts | 45° |
| 2026-05-06 10:34 | 27.93248 | 125.72407 | 39008 ft | 482 kts | 46° |
| 2026-05-06 10:34 | 27.97516 | 125.78257 | 39012 ft | 482 kts | 46° |
| 2026-05-06 10:35 | 28.01770 | 125.84095 | 39011 ft | 483 kts | 46° |
| 2026-05-06 10:35 | 28.06044 | 125.89970 | 39011 ft | 483 kts | 46° |
| 2026-05-06 10:36 | 28.10317 | 125.95851 | 39013 ft | 483 kts | 46° |
| 2026-05-06 10:36 | 28.14561 | 126.01700 | 39018 ft | 483 kts | 46° |
| 2026-05-06 10:37 | 28.18837 | 126.07602 | 39014 ft | 482 kts | 46° |
| 2026-05-06 10:37 | 28.23066 | 126.13446 | 39016 ft | 481 kts | 47° |
| 2026-05-06 10:38 | 28.26331 | 126.17964 | 39015 ft | 0 kts | 47° |
| 2026-05-06 10:38 | 28.28560 | 126.20761 | 38980 ft | 481 kts | 44° |
| 2026-05-06 10:38 | 28.30351 | 126.23148 | 39068 ft | 476 kts | 37° |
| 2026-05-06 10:39 | 28.34729 | 126.28470 | 38958 ft | 481 kts | 46° |
| 2026-05-06 10:39 | 28.38729 | 126.34581 | 39010 ft | 481 kts | 49° |
| 2026-05-06 10:40 | 28.42742 | 126.40647 | 39017 ft | 479 kts | 47° |
| 2026-05-06 10:40 | 28.46864 | 126.46533 | 39023 ft | 478 kts | 46° |
| 2026-05-06 10:41 | 28.51083 | 126.52407 | 39022 ft | 478 kts | 46° |
| 2026-05-06 10:41 | 28.54592 | 126.57284 | 39026 ft | 479 kts | 46° |
| 2026-05-06 10:42 | 28.58817 | 126.63179 | 39026 ft | 480 kts | 46° |
| 2026-05-06 10:42 | 28.63008 | 126.69046 | 39036 ft | 480 kts | 46° |
| 2026-05-06 10:43 | 28.67234 | 126.74972 | 39025 ft | 481 kts | 47° |
| 2026-05-06 10:44 | 28.73551 | 126.83847 | 39029 ft | 482 kts | 47° |
| 2026-05-06 10:44 | 28.77777 | 126.89795 | 39036 ft | 482 kts | 47° |
| 2026-05-06 10:45 | 28.81979 | 126.95719 | 39035 ft | 483 kts | 47° |
| 2026-05-06 10:45 | 28.86215 | 127.01695 | 39020 ft | 483 kts | 48° |
| 2026-05-06 10:46 | 28.90451 | 127.07681 | 39034 ft | 485 kts | 48° |
| 2026-05-06 10:46 | 28.94677 | 127.13664 | 39044 ft | 486 kts | 48° |
| 2026-05-06 10:47 | 28.98929 | 127.19692 | 39034 ft | 486 kts | 48° |
| 2026-05-06 10:47 | 29.03174 | 127.25717 | 39029 ft | 487 kts | 48° |
| 2026-05-06 10:48 | 29.07402 | 127.31727 | 39034 ft | 489 kts | 49° |
| 2026-05-06 10:48 | 29.11672 | 127.37807 | 39044 ft | 490 kts | 48° |
| 2026-05-06 10:49 | 29.15952 | 127.43911 | 39040 ft | 491 kts | 48° |
| 2026-05-06 10:49 | 29.20229 | 127.50017 | 39032 ft | 493 kts | 49° |
| 2026-05-06 10:50 | 29.24500 | 127.56125 | 39044 ft | 495 kts | 49° |
| 2026-05-06 10:50 | 29.28813 | 127.62305 | 39049 ft | 497 kts | 49° |
| 2026-05-06 10:51 | 29.33130 | 127.68498 | 39042 ft | 497 kts | 49° |
| 2026-05-06 10:51 | 29.37454 | 127.74711 | 39035 ft | 498 kts | 50° |
| 2026-05-06 10:52 | 29.41783 | 127.80942 | 39052 ft | 499 kts | 50° |
| 2026-05-06 10:52 | 29.46100 | 127.87168 | 39044 ft | 501 kts | 50° |
| 2026-05-06 10:53 | 29.50445 | 127.93445 | 39044 ft | 501 kts | 50° |
| 2026-05-06 10:53 | 29.54798 | 127.99728 | 39036 ft | 503 kts | 50° |
| 2026-05-06 10:54 | 29.59140 | 128.05991 | 39047 ft | 505 kts | 50° |
| 2026-05-06 10:54 | 29.63525 | 128.12333 | 39049 ft | 506 kts | 50° |
| 2026-05-06 10:55 | 29.67904 | 128.18683 | 39045 ft | 507 kts | 50° |
| 2026-05-06 10:55 | 29.72293 | 128.25059 | 39047 ft | 509 kts | 51° |
| 2026-05-06 10:56 | 29.76701 | 128.31474 | 39039 ft | 511 kts | 51° |
| 2026-05-06 10:56 | 29.81092 | 128.37874 | 39041 ft | 513 kts | 51° |
| 2026-05-06 10:57 | 29.85522 | 128.44341 | 39043 ft | 514 kts | 51° |
| 2026-05-06 10:57 | 29.89939 | 128.50801 | 39045 ft | 508 kts | 50° |
| 2026-05-06 10:58 | 29.94264 | 128.57133 | 39042 ft | 502 kts | 50° |
| 2026-05-06 10:58 | 29.98591 | 128.63479 | 39050 ft | 502 kts | 50° |
| 2026-05-06 10:59 | 30.02907 | 128.69816 | 39049 ft | 509 kts | 51° |
| 2026-05-06 10:59 | 30.07333 | 128.76332 | 39063 ft | 520 kts | 51° |
| 2026-05-06 11:00 | 30.11815 | 128.82940 | 39054 ft | 524 kts | 51° |
| 2026-05-06 11:00 | 30.16297 | 128.89561 | 39040 ft | 517 kts | 52° |
| 2026-05-06 11:01 | 30.20758 | 128.96164 | 39060 ft | 526 kts | 52° |
| 2026-05-06 11:01 | 30.25279 | 129.02855 | 39055 ft | 533 kts | 52° |
| 2026-05-06 11:02 | 30.29876 | 129.09659 | 39068 ft | 535 kts | 52° |
| 2026-05-06 11:02 | 30.34413 | 129.16393 | 39047 ft | 533 kts | 53° |
| 2026-05-06 11:03 | 30.38990 | 129.23204 | 39071 ft | 537 kts | 53° |
| 2026-05-06 11:03 | 30.43596 | 129.30076 | 39056 ft | 540 kts | 53° |
| 2026-05-06 11:04 | 30.48180 | 129.36924 | 39044 ft | 537 kts | 53° |
| 2026-05-06 11:04 | 30.52789 | 129.43819 | 39078 ft | 541 kts | 53° |
| 2026-05-06 11:05 | 30.57390 | 129.50718 | 39072 ft | 545 kts | 53° |
| 2026-05-06 11:05 | 30.62034 | 129.57694 | 39060 ft | 542 kts | 53° |
| 2026-05-06 11:06 | 30.66637 | 129.64616 | 39059 ft | 542 kts | 53° |
| 2026-05-06 11:06 | 30.71254 | 129.71577 | 39061 ft | 547 kts | 54° |
| 2026-05-06 11:07 | 30.75914 | 129.78617 | 39066 ft | 550 kts | 53° |
| 2026-05-06 11:07 | 30.80563 | 129.85654 | 39059 ft | 551 kts | 54° |
| 2026-05-06 11:08 | 30.85170 | 129.92775 | 39061 ft | 549 kts | 58° |
| 2026-05-06 11:08 | 30.89242 | 130.00298 | 39070 ft | 547 kts | 60° |
| 2026-05-06 11:09 | 30.93179 | 130.07832 | 39071 ft | 546 kts | 60° |
| 2026-05-06 11:09 | 30.97149 | 130.15396 | 39073 ft | 545 kts | 60° |
| 2026-05-06 11:10 | 31.01116 | 130.22898 | 39082 ft | 545 kts | 60° |
| 2026-05-06 11:10 | 31.05108 | 130.30443 | 39078 ft | 545 kts | 60° |
| 2026-05-06 11:11 | 31.09060 | 130.37929 | 39076 ft | 545 kts | 60° |
| 2026-05-06 11:11 | 31.13036 | 130.45481 | 39093 ft | 545 kts | 60° |
| 2026-05-06 11:12 | 31.17010 | 130.53050 | 39102 ft | 545 kts | 60° |
| 2026-05-06 11:12 | 31.20948 | 130.60559 | 39088 ft | 545 kts | 60° |
| 2026-05-06 11:13 | 31.24909 | 130.68127 | 39091 ft | 545 kts | 60° |
| 2026-05-06 11:13 | 31.28862 | 130.75696 | 39095 ft | 546 kts | 60° |
| 2026-05-06 11:14 | 31.32821 | 130.83292 | 39100 ft | 546 kts | 60° |
| 2026-05-06 11:14 | 31.36782 | 130.90906 | 39097 ft | 546 kts | 60° |
| 2026-05-06 11:15 | 31.40705 | 130.98464 | 39096 ft | 546 kts | 60° |
| 2026-05-06 11:15 | 31.44659 | 131.06094 | 39094 ft | 547 kts | 60° |
| 2026-05-06 11:16 | 31.48599 | 131.13716 | 39107 ft | 547 kts | 60° |
| 2026-05-06 11:16 | 31.52527 | 131.21331 | 39097 ft | 547 kts | 60° |
| 2026-05-06 11:17 | 31.56472 | 131.28998 | 39099 ft | 548 kts | 60° |
| 2026-05-06 11:17 | 31.60414 | 131.36670 | 39095 ft | 548 kts | 60° |
| 2026-05-06 11:18 | 31.64355 | 131.44341 | 39095 ft | 548 kts | 60° |
| 2026-05-06 11:18 | 31.68263 | 131.51969 | 39109 ft | 548 kts | 60° |
| 2026-05-06 11:19 | 31.72198 | 131.59671 | 39089 ft | 548 kts | 60° |
| 2026-05-06 11:19 | 31.76092 | 131.67318 | 39097 ft | 548 kts | 60° |
| 2026-05-06 11:20 | 31.80009 | 131.75024 | 39100 ft | 547 kts | 60° |
| 2026-05-06 11:20 | 31.83893 | 131.82680 | 39112 ft | 547 kts | 60° |
| 2026-05-06 11:21 | 31.87794 | 131.90384 | 39094 ft | 548 kts | 60° |
| 2026-05-06 11:21 | 31.91677 | 131.98070 | 39101 ft | 548 kts | 60° |
| 2026-05-06 11:22 | 31.95576 | 132.05802 | 39124 ft | 548 kts | 60° |
| 2026-05-06 11:22 | 31.99471 | 132.13545 | 39095 ft | 548 kts | 60° |
| 2026-05-06 11:23 | 32.03357 | 132.21287 | 39090 ft | 548 kts | 60° |
| 2026-05-06 11:23 | 32.07222 | 132.29005 | 39103 ft | 549 kts | 60° |
| 2026-05-06 11:24 | 32.10475 | 132.35515 | 39096 ft | 549 kts | 60° |
| 2026-05-06 11:24 | 32.14193 | 132.43346 | 39094 ft | 548 kts | 64° |
| 2026-05-06 11:25 | 32.17608 | 132.51398 | 39123 ft | 548 kts | 65° |
| 2026-05-06 11:25 | 32.20989 | 132.59498 | 39097 ft | 549 kts | 65° |
| 2026-05-06 11:26 | 32.24371 | 132.67550 | 39098 ft | 549 kts | 65° |
| 2026-05-06 11:26 | 32.27781 | 132.75634 | 39105 ft | 549 kts | 65° |
| 2026-05-06 11:27 | 32.31196 | 132.83740 | 39100 ft | 550 kts | 65° |
| 2026-05-06 11:27 | 32.34579 | 132.91796 | 39100 ft | 550 kts | 65° |
| 2026-05-06 11:28 | 32.37983 | 132.99927 | 39125 ft | 550 kts | 65° |
| 2026-05-06 11:28 | 32.41378 | 133.08052 | 39099 ft | 551 kts | 65° |
| 2026-05-06 11:29 | 32.44779 | 133.16214 | 39105 ft | 551 kts | 65° |
| 2026-05-06 11:29 | 32.48154 | 133.24331 | 39096 ft | 551 kts | 65° |
| 2026-05-06 11:30 | 32.51546 | 133.32510 | 39104 ft | 551 kts | 65° |
| 2026-05-06 11:30 | 32.54898 | 133.40617 | 39106 ft | 551 kts | 65° |
| 2026-05-06 11:31 | 32.58282 | 133.48805 | 39118 ft | 551 kts | 65° |
| 2026-05-06 11:31 | 32.61649 | 133.56972 | 39106 ft | 551 kts | 65° |
| 2026-05-06 11:32 | 32.64997 | 133.65110 | 39090 ft | 551 kts | 65° |
| 2026-05-06 11:32 | 32.68366 | 133.73303 | 39112 ft | 552 kts | 66° |
| 2026-05-06 11:33 | 32.71734 | 133.81528 | 39110 ft | 553 kts | 66° |
| 2026-05-06 11:33 | 32.75070 | 133.89701 | 39112 ft | 553 kts | 65° |
| 2026-05-06 11:34 | 32.78430 | 133.97963 | 39112 ft | 555 kts | 66° |
| 2026-05-06 11:34 | 32.81763 | 134.06271 | 39095 ft | 555 kts | 68° |
| 2026-05-06 11:35 | 32.84261 | 134.14866 | 39128 ft | 552 kts | 76° |
| 2026-05-06 11:35 | 32.86380 | 134.23675 | 39109 ft | 553 kts | 77° |
| 2026-05-06 11:36 | 32.88512 | 134.32469 | 39108 ft | 555 kts | 76° |
| 2026-05-06 11:36 | 32.90696 | 134.41298 | 39115 ft | 556 kts | 76° |
| 2026-05-06 11:37 | 32.92887 | 134.50130 | 39109 ft | 556 kts | 76° |
| 2026-05-06 11:37 | 32.95058 | 134.58936 | 39115 ft | 556 kts | 76° |
| 2026-05-06 11:38 | 32.97230 | 134.67791 | 39128 ft | 555 kts | 77° |
| 2026-05-06 11:38 | 32.99383 | 134.76605 | 39111 ft | 554 kts | 76° |
| 2026-05-06 11:39 | 33.01541 | 134.85435 | 39118 ft | 554 kts | 76° |
| 2026-05-06 11:39 | 33.03680 | 134.94220 | 39124 ft | 555 kts | 77° |
| 2026-05-06 11:40 | 33.05821 | 135.03074 | 39113 ft | 556 kts | 77° |
| 2026-05-06 11:40 | 33.07962 | 135.11941 | 39122 ft | 556 kts | 76° |
| 2026-05-06 11:40 | 33.09352 | 135.16261 | 39115 ft | 559 kts | 64° |
| 2026-05-06 11:41 | 33.11372 | 135.20214 | 39121 ft | 559 kts | 52° |
| 2026-05-06 11:41 | 33.16708 | 135.26649 | 39124 ft | 534 kts | 32° |
| 2026-05-06 11:42 | 33.22716 | 135.31811 | 38494 ft | 543 kts | 31° |
| 2026-05-06 11:42 | 33.25813 | 135.34500 | 37756 ft | 556 kts | 33° |
| 2026-05-06 11:42 | 33.28923 | 135.37272 | 37022 ft | 557 kts | 33° |
| 2026-05-06 11:42 | 33.32016 | 135.40066 | 36306 ft | 556 kts | 34° |
| 2026-05-06 11:43 | 33.35066 | 135.42839 | 35552 ft | 556 kts | 34° |
| 2026-05-06 11:43 | 33.38152 | 135.45652 | 34683 ft | 559 kts | 35° |
| 2026-05-06 11:43 | 33.41263 | 135.48490 | 33741 ft | 562 kts | 35° |
| 2026-05-06 11:44 | 33.47502 | 135.54178 | 31760 ft | 565 kts | 35° |
| 2026-05-06 11:44 | 33.50633 | 135.57032 | 30775 ft | 567 kts | 34° |
| 2026-05-06 11:44 | 33.53792 | 135.59915 | 29868 ft | 567 kts | 34° |
| 2026-05-06 11:44 | 33.56907 | 135.62757 | 29239 ft | 559 kts | 34° |
| 2026-05-06 11:45 | 33.59989 | 135.65574 | 28578 ft | 552 kts | 34° |
| 2026-05-06 11:45 | 33.62995 | 135.68319 | 27952 ft | 546 kts | 34° |
| 2026-05-06 11:45 | 33.66003 | 135.71067 | 27296 ft | 541 kts | 34° |
| 2026-05-06 11:45 | 33.69006 | 135.73801 | 26655 ft | 536 kts | 33° |
| 2026-05-06 11:46 | 33.71979 | 135.76482 | 26013 ft | 531 kts | 33° |
| 2026-05-06 11:46 | 33.74929 | 135.79125 | 25379 ft | 527 kts | 33° |
| 2026-05-06 11:46 | 33.77855 | 135.81762 | 24712 ft | 524 kts | 34° |
| 2026-05-06 11:46 | 33.80726 | 135.84371 | 24102 ft | 521 kts | 34° |
| 2026-05-06 11:47 | 33.83622 | 135.86990 | 23413 ft | 519 kts | 33° |
| 2026-05-06 11:47 | 33.86511 | 135.89606 | 22617 ft | 516 kts | 34° |
| 2026-05-06 11:47 | 33.89368 | 135.92204 | 21970 ft | 509 kts | 34° |
| 2026-05-06 11:47 | 33.92174 | 135.94733 | 21297 ft | 500 kts | 34° |
| 2026-05-06 11:48 | 33.94898 | 135.97207 | 20770 ft | 490 kts | 34° |
| 2026-05-06 11:48 | 33.97614 | 135.99675 | 20171 ft | 484 kts | 34° |
| 2026-05-06 11:48 | 34.00288 | 136.02112 | 19719 ft | 475 kts | 34° |
| 2026-05-06 11:48 | 34.02891 | 136.04486 | 19316 ft | 464 kts | 34° |
| 2026-05-06 11:49 | 34.05410 | 136.06779 | 18981 ft | 452 kts | 34° |
| 2026-05-06 11:49 | 34.07892 | 136.09042 | 18632 ft | 442 kts | 34° |
| 2026-05-06 11:49 | 34.10320 | 136.11260 | 18238 ft | 433 kts | 34° |
| 2026-05-06 11:49 | 34.12707 | 136.13443 | 17657 ft | 429 kts | 34° |
| 2026-05-06 11:50 | 34.15082 | 136.15616 | 17001 ft | 426 kts | 34° |
| 2026-05-06 11:50 | 34.17445 | 136.17772 | 16361 ft | 424 kts | 34° |
| 2026-05-06 11:50 | 34.19784 | 136.19910 | 15817 ft | 420 kts | 34° |
| 2026-05-06 11:50 | 34.22111 | 136.22034 | 15288 ft | 415 kts | 34° |
| 2026-05-06 11:51 | 34.24405 | 136.24123 | 14775 ft | 411 kts | 35° |
| 2026-05-06 11:51 | 34.26681 | 136.26191 | 14223 ft | 408 kts | 35° |
| 2026-05-06 11:51 | 34.28951 | 136.28252 | 13647 ft | 407 kts | 35° |
| 2026-05-06 11:51 | 34.31199 | 136.30305 | 13067 ft | 403 kts | 35° |
| 2026-05-06 11:52 | 34.33426 | 136.32341 | 12574 ft | 398 kts | 35° |
| 2026-05-06 11:52 | 34.35599 | 136.34328 | 12421 ft | 384 kts | 35° |
| 2026-05-06 11:52 | 34.37641 | 136.36195 | 12271 ft | 359 kts | 35° |
| 2026-05-06 11:52 | 34.39577 | 136.37964 | 12079 ft | 335 kts | 34° |
| 2026-05-06 11:53 | 34.41355 | 136.39657 | 11740 ft | 320 kts | 42° |
| 2026-05-06 11:53 | 34.42608 | 136.41849 | 11337 ft | 316 kts | 65° |
| 2026-05-06 11:53 | 34.43479 | 136.44278 | 11049 ft | 313 kts | 65° |
| 2026-05-06 11:53 | 34.44345 | 136.46679 | 10754 ft | 310 kts | 65° |
| 2026-05-06 11:54 | 34.45208 | 136.49069 | 10450 ft | 308 kts | 66° |
| 2026-05-06 11:54 | 34.46068 | 136.51443 | 10156 ft | 306 kts | 65° |
| 2026-05-06 11:54 | 34.46922 | 136.53799 | 9834 ft | 305 kts | 65° |
| 2026-05-06 11:54 | 34.47774 | 136.56138 | 9516 ft | 303 kts | 65° |
| 2026-05-06 11:55 | 34.48626 | 136.58470 | 9180 ft | 301 kts | 66° |
| 2026-05-06 11:55 | 34.49474 | 136.60788 | 8858 ft | 300 kts | 66° |
| 2026-05-06 11:55 | 34.50307 | 136.63072 | 8567 ft | 298 kts | 66° |
| 2026-05-06 11:55 | 34.51142 | 136.65356 | 8280 ft | 295 kts | 66° |
| 2026-05-06 11:56 | 34.51964 | 136.67609 | 8155 ft | 286 kts | 66° |
| 2026-05-06 11:56 | 34.52754 | 136.69775 | 8067 ft | 275 kts | 66° |
| 2026-05-06 11:56 | 34.53522 | 136.71887 | 7766 ft | 273 kts | 66° |
| 2026-05-06 11:56 | 34.54289 | 136.74003 | 7331 ft | 271 kts | 66° |
| 2026-05-06 11:57 | 34.55037 | 136.76069 | 6892 ft | 265 kts | 67° |
| 2026-05-06 11:57 | 34.55771 | 136.78094 | 6430 ft | 259 kts | 67° |
| 2026-05-06 11:57 | 34.56480 | 136.80047 | 5980 ft | 254 kts | 67° |
| 2026-05-06 11:57 | 34.57185 | 136.81986 | 5532 ft | 249 kts | 67° |
| 2026-05-06 11:58 | 34.57878 | 136.83892 | 5076 ft | 244 kts | 67° |
| 2026-05-06 11:58 | 34.58763 | 136.85610 | 4645 ft | 239 kts | 41° |
| 2026-05-06 11:58 | 34.60211 | 136.86454 | 4256 ft | 230 kts | 7° |
| 2026-05-06 11:58 | 34.61776 | 136.86328 | 3815 ft | 224 kts | 346° |
| 2026-05-06 11:59 | 34.63270 | 136.85940 | 3528 ft | 213 kts | 347° |
| 2026-05-06 11:59 | 34.64669 | 136.85596 | 3500 ft | 203 kts | 348° |
| 2026-05-06 11:59 | 34.66064 | 136.85260 | 3494 ft | 201 kts | 348° |
| 2026-05-06 11:59 | 34.67433 | 136.84932 | 3498 ft | 200 kts | 348° |
| 2026-05-06 12:00 | 34.68742 | 136.84620 | 3442 ft | 189 kts | 348° |
| 2026-05-06 12:00 | 34.70012 | 136.84316 | 3129 ft | 179 kts | 348° |
| 2026-05-06 12:00 | 34.71234 | 136.84025 | 2895 ft | 179 kts | 349° |
| 2026-05-06 12:00 | 34.72424 | 136.83741 | 2609 ft | 168 kts | 349° |
| 2026-05-06 12:01 | 34.73515 | 136.83479 | 2368 ft | 151 kts | 349° |
| 2026-05-06 12:01 | 34.74538 | 136.83235 | 2183 ft | 153 kts | 350° |
| 2026-05-06 12:01 | 34.75586 | 136.82987 | 1940 ft | 151 kts | 350° |
| 2026-05-06 12:01 | 34.76615 | 136.82742 | 1711 ft | 149 kts | 349° |
| 2026-05-06 12:02 | 34.77621 | 136.82502 | 1497 ft | 148 kts | 349° |
| 2026-05-06 12:02 | 34.78636 | 136.82260 | 1279 ft | 148 kts | 349° |
| 2026-05-06 12:02 | 34.79646 | 136.82018 | 1059 ft | 147 kts | 349° |
| 2026-05-06 12:02 | 34.80643 | 136.81781 | 831 ft | 144 kts | 348° |
| 2026-05-06 12:03 | 34.81632 | 136.81523 | 625 ft | 143 kts | 349° |
| 2026-05-06 12:03 | 34.82591 | 136.81299 | 414 ft | 142 kts | 350° |
| 2026-05-06 12:03 | 34.83543 | 136.81088 | 220 ft | 136 kts | 349° |
| 2026-05-06 12:03 | 34.84477 | 136.80860 | 52 ft | 138 kts | 349° |
| 2026-05-06 12:04 | 34.85329 | 136.80659 | 31 ft | 108 kts | 349° |
| 2026-05-06 12:04 | 34.85917 | 136.80518 | 30 ft | 63 kts | 349° |
| 2026-05-06 12:04 | 34.86204 | 136.80513 | 33 ft | 19 kts | 20° |
| 2026-05-06 12:04 | 34.86260 | 136.80539 | 33 ft | 10 kts | 20° |
| 2026-05-06 12:05 | 34.86316 | 136.80565 | 33 ft | 5 kts | 26° |
| 2026-05-06 12:05 | 34.86336 | 136.80610 | 33 ft | 5 kts | 88° |
| 2026-05-06 12:05 | 34.86322 | 136.80647 | 33 ft | 5 kts | 127° |
| 2026-05-06 12:05 | 34.86302 | 136.80666 | 33 ft | 6 kts | 150° |
| 2026-05-06 12:06 | 34.86261 | 136.80681 | 33 ft | 7 kts | 169° |
| 2026-05-06 12:06 | 34.86208 | 136.80693 | 33 ft | 8 kts | 169° |
| 2026-05-06 12:06 | 34.86133 | 136.80712 | 33 ft | 14 kts | 168° |
| 2026-05-06 12:06 | 34.86008 | 136.80742 | 33 ft | 22 kts | 169° |
| 2026-05-06 12:07 | 34.85856 | 136.80778 | 32 ft | 23 kts | 168° |
| 2026-05-06 12:07 | 34.85702 | 136.80816 | 32 ft | 23 kts | 168° |
| 2026-05-06 12:07 | 34.85604 | 136.80838 | 32 ft | 7 kts | 169° |
| 2026-05-06 12:07 | 34.85570 | 136.80879 | 32 ft | 7 kts | 98° |
| 2026-05-06 12:08 | 34.85588 | 136.80938 | 31 ft | 8 kts | 42° |
| 2026-05-06 12:08 | 34.85640 | 136.80960 | 33 ft | 8 kts | 35° |
| 2026-05-06 12:08 | 34.85661 | 136.81026 | 33 ft | 9 kts | 79° |
| 2026-05-06 12:08 | 34.85673 | 136.81103 | 33 ft | 10 kts | 79° |
| 2026-05-06 12:09 | 34.85686 | 136.81177 | 33 ft | 7 kts | 73° |
| 2026-05-06 12:09 | 34.85716 | 136.81190 | 33 ft | 5 kts | 349° |
| 2026-05-06 12:09 | 34.85755 | 136.81180 | 33 ft | 6 kts | 348° |
| 2026-05-06 12:09 | 34.85772 | 136.81176 | 33 ft | 1 kts | 348° |
| 2026-05-06 12:10 | 34.85776 | 136.81175 | 33 ft | 0 kts | 348° |
| 2026-05-06 12:19 | 34.85790 | 136.81260 | 33 ft | 0 kts | 348° |
| 2026-05-06 12:19 | 34.85776 | 136.81174 | 33 ft | 0 kts | 348° |